NCAR-RAP Real-Time Weather Data

Output produced by METARs form (26 May 2022  08:26 UTC)
found at http://weather.rap.ucar.edu/surface/
 
VDPP 260730Z 27007KT 230V340 9999 SCT015 FEW017CB 35/24 Q1004 RMK CB:N
VDPP 260700Z 28007KT 240V340 9999 SCT017 34/24 Q1004
VDPP 260630Z 27008KT 2440V302 9999 SCT017 34/23 Q1005
VDPP 260600Z 26008KT 2340V300 9999 SCT017 SCT040 34/23 Q1006
VDPP 260530Z 27008KT 240V320 9999 SCT017 SCT040 34/24 Q1006
VDPP 260500Z 27008KT 230V310 9999 SCT017 SCT040 33/23 Q1007
VDPP 260430Z 27008KT 230V320 9999 SCT017 SCT040 33/24 Q1007
VDPP 260400Z 26009KT 230V290 9999 SCT017 SCT040 32/24 Q1007
VDPP 260330Z 26007KT 220V310 9999 SCT017 SCT040 32/24 Q1007
VDPP 260300Z 25010KT 9999 SCT017 SCT040 31/24 Q1007
VDPP 260230Z 23009KT 9999 SCT017 SCT040 31/24 Q1007
VDPP 260200Z 22007KT 9999 SCT017 SCT040 30/25 Q1007
VDPP 260130Z 21006KT 190V250 9999 SCT017 SCT040 30/24 Q1007
VDPP 260100Z 23008KT 9999 SCT017 SCT040 30/24 Q1007
VDPP 260030Z 22006KT 9999 SCT017 SCT040 29/24 Q1007
VDPP 260000Z 23006KT 9999 SCT017 SCT040 28/24 Q1006
VDPP 252330Z 23006KT 9999 SCT015 SCT040 28/24 Q1006
VDPP 252300Z 24005KT 9000 SCT015 SCT040 28/24 Q1005
VDPP 252230Z 24006KT 9000 SCT015 SCT040 28/24 Q1005
VDPP 252200Z 24007KT 9000 SCT015 SCT040 28/24 Q1005
VDPP 252130Z 24006KT 9000 SCT015 SCT040 28/24 Q1005
VDPP 252100Z 25004KT 9000 SCT015 SCT040 28/24 Q1005
VDPP 252030Z 25004KT 210V270 9000 SCT015 SCT040 29/24 Q1006